sensor_id;sensor_type;location;lat;lon;timestamp;P1;durP1;ratioP1;P2;durP2;ratioP2
18651;SDS011;9455;54.302;10.124;2022-11-06T00:00:34;14.57;;;6.70;;
18651;SDS011;9455;54.302;10.124;2022-11-06T00:03:01;16.17;;;6.93;;
18651;SDS011;9455;54.302;10.124;2022-11-06T00:05:29;31.67;;;11.87;;
18651;SDS011;9455;54.302;10.124;2022-11-06T00:08:13;22.13;;;7.73;;
18651;SDS011;9455;54.302;10.124;2022-11-06T00:10:40;14.27;;;7.63;;
18651;SDS011;9455;54.302;10.124;2022-11-06T00:13:06;12.50;;;6.57;;
18651;SDS011;9455;54.302;10.124;2022-11-06T00:15:34;18.20;;;7.13;;
18651;SDS011;9455;54.302;10.124;2022-11-06T00:18:01;15.77;;;7.57;;
18651;SDS011;9455;54.302;10.124;2022-11-06T00:20:27;14.87;;;7.03;;
18651;SDS011;9455;54.302;10.124;2022-11-06T00:22:54;15.50;;;7.60;;
18651;SDS011;9455;54.302;10.124;2022-11-06T00:25:20;15.73;;;7.60;;
18651;SDS011;9455;54.302;10.124;2022-11-06T00:27:47;22.00;;;7.17;;
18651;SDS011;9455;54.302;10.124;2022-11-06T00:30:13;19.93;;;7.37;;
18651;SDS011;9455;54.302;10.124;2022-11-06T00:32:41;14.07;;;6.27;;
18651;SDS011;9455;54.302;10.124;2022-11-06T00:35:08;20.50;;;7.90;;
18651;SDS011;9455;54.302;10.124;2022-11-06T00:37:34;17.40;;;7.70;;
18651;SDS011;9455;54.302;10.124;2022-11-06T00:40:01;17.73;;;7.23;;
18651;SDS011;9455;54.302;10.124;2022-11-06T00:42:28;14.67;;;7.43;;
18651;SDS011;9455;54.302;10.124;2022-11-06T00:44:55;14.97;;;6.40;;
18651;SDS011;9455;54.302;10.124;2022-11-06T00:47:21;16.40;;;7.83;;
18651;SDS011;9455;54.302;10.124;2022-11-06T00:49:50;16.83;;;7.03;;
18651;SDS011;9455;54.302;10.124;2022-11-06T00:52:16;17.30;;;7.90;;
18651;SDS011;9455;54.302;10.124;2022-11-06T00:54:43;20.10;;;8.23;;
18651;SDS011;9455;54.302;10.124;2022-11-06T00:57:09;15.67;;;7.33;;
18651;SDS011;9455;54.302;10.124;2022-11-06T00:59:36;20.87;;;7.43;;
18651;SDS011;9455;54.302;10.124;2022-11-06T01:02:02;12.23;;;7.57;;
18651;SDS011;9455;54.302;10.124;2022-11-06T01:04:28;11.50;;;6.17;;
18651;SDS011;9455;54.302;10.124;2022-11-06T01:06:56;20.70;;;6.97;;
18651;SDS011;9455;54.302;10.124;2022-11-06T01:09:24;20.50;;;7.10;;
18651;SDS011;9455;54.302;10.124;2022-11-06T01:11:53;18.37;;;7.80;;
18651;SDS011;9455;54.302;10.124;2022-11-06T01:14:21;19.10;;;6.17;;
18651;SDS011;9455;54.302;10.124;2022-11-06T01:16:48;15.33;;;7.47;;
18651;SDS011;9455;54.302;10.124;2022-11-06T01:19:16;12.70;;;6.77;;
18651;SDS011;9455;54.302;10.124;2022-11-06T01:21:45;12.77;;;6.17;;
18651;SDS011;9455;54.302;10.124;2022-11-06T01:24:15;11.67;;;6.60;;
18651;SDS011;9455;54.302;10.124;2022-11-06T01:26:43;12.20;;;5.97;;
18651;SDS011;9455;54.302;10.124;2022-11-06T01:29:11;17.83;;;7.20;;
18651;SDS011;9455;54.302;10.124;2022-11-06T01:31:38;12.73;;;6.00;;
18651;SDS011;9455;54.302;10.124;2022-11-06T01:34:05;9.00;;;5.27;;
18651;SDS011;9455;54.302;10.124;2022-11-06T01:36:32;11.90;;;5.83;;
18651;SDS011;9455;54.302;10.124;2022-11-06T01:39:00;13.47;;;5.97;;
18651;SDS011;9455;54.302;10.124;2022-11-06T01:41:31;12.80;;;6.20;;
18651;SDS011;9455;54.302;10.124;2022-11-06T01:44:00;11.10;;;6.13;;
18651;SDS011;9455;54.302;10.124;2022-11-06T01:46:28;18.47;;;5.50;;
18651;SDS011;9455;54.302;10.124;2022-11-06T01:48:57;18.50;;;5.33;;
18651;SDS011;9455;54.302;10.124;2022-11-06T01:51:26;12.70;;;5.80;;
18651;SDS011;9455;54.302;10.124;2022-11-06T01:53:54;13.80;;;5.30;;
18651;SDS011;9455;54.302;10.124;2022-11-06T01:56:22;8.93;;;5.87;;
18651;SDS011;9455;54.302;10.124;2022-11-06T01:58:51;12.03;;;5.40;;
18651;SDS011;9455;54.302;10.124;2022-11-06T02:01:20;9.37;;;5.07;;
18651;SDS011;9455;54.302;10.124;2022-11-06T02:03:49;14.97;;;5.67;;
18651;SDS011;9455;54.302;10.124;2022-11-06T02:06:20;7.63;;;4.93;;
18651;SDS011;9455;54.302;10.124;2022-11-06T02:08:47;11.17;;;4.87;;
18651;SDS011;9455;54.302;10.124;2022-11-06T02:11:13;6.93;;;4.50;;
18651;SDS011;9455;54.302;10.124;2022-11-06T02:13:42;5.83;;;4.10;;
18651;SDS011;9455;54.302;10.124;2022-11-06T02:16:18;7.13;;;4.87;;
18651;SDS011;9455;54.302;10.124;2022-11-06T02:18:54;7.23;;;4.20;;
18651;SDS011;9455;54.302;10.124;2022-11-06T02:24:29;7.30;;;4.70;;
18651;SDS011;9455;54.302;10.124;2022-11-06T02:27:14;5.80;;;4.40;;
18651;SDS011;9455;54.302;10.124;2022-11-06T02:29:47;6.00;;;3.77;;
18651;SDS011;9455;54.302;10.124;2022-11-06T02:32:21;11.73;;;4.23;;
18651;SDS011;9455;54.302;10.124;2022-11-06T02:34:52;5.17;;;3.70;;
18651;SDS011;9455;54.302;10.124;2022-11-06T02:37:23;7.33;;;4.03;;
18651;SDS011;9455;54.302;10.124;2022-11-06T02:39:53;6.83;;;3.83;;
18651;SDS011;9455;54.302;10.124;2022-11-06T02:42:25;11.37;;;3.93;;
18651;SDS011;9455;54.302;10.124;2022-11-06T02:44:54;8.73;;;3.73;;
18651;SDS011;9455;54.302;10.124;2022-11-06T02:47:23;7.67;;;4.00;;
18651;SDS011;9455;54.302;10.124;2022-11-06T02:49:54;7.87;;;3.50;;
18651;SDS011;9455;54.302;10.124;2022-11-06T02:52:28;4.33;;;3.50;;
18651;SDS011;9455;54.302;10.124;2022-11-06T02:55:00;5.83;;;3.33;;
18651;SDS011;9455;54.302;10.124;2022-11-06T02:57:32;5.70;;;3.57;;
18651;SDS011;9455;54.302;10.124;2022-11-06T03:00:03;5.27;;;3.80;;
18651;SDS011;9455;54.302;10.124;2022-11-06T03:02:32;3.77;;;3.37;;
18651;SDS011;9455;54.302;10.124;2022-11-06T03:05:05;5.60;;;3.40;;
18651;SDS011;9455;54.302;10.124;2022-11-06T03:07:38;4.30;;;3.73;;
18651;SDS011;9455;54.302;10.124;2022-11-06T03:10:09;8.10;;;3.27;;
18651;SDS011;9455;54.302;10.124;2022-11-06T03:12:40;7.37;;;3.63;;
18651;SDS011;9455;54.302;10.124;2022-11-06T03:15:17;4.60;;;3.20;;
18651;SDS011;9455;54.302;10.124;2022-11-06T03:17:51;12.80;;;3.93;;
18651;SDS011;9455;54.302;10.124;2022-11-06T03:20:26;11.83;;;4.37;;
18651;SDS011;9455;54.302;10.124;2022-11-06T03:22:57;3.50;;;3.17;;
18651;SDS011;9455;54.302;10.124;2022-11-06T03:25:28;7.10;;;3.73;;
18651;SDS011;9455;54.302;10.124;2022-11-06T03:28:02;5.13;;;4.17;;
18651;SDS011;9455;54.302;10.124;2022-11-06T03:30:34;8.03;;;3.47;;
18651;SDS011;9455;54.302;10.124;2022-11-06T03:33:06;6.60;;;4.20;;
18651;SDS011;9455;54.302;10.124;2022-11-06T03:35:39;11.30;;;3.43;;
18651;SDS011;9455;54.302;10.124;2022-11-06T03:38:12;8.83;;;3.83;;
18651;SDS011;9455;54.302;10.124;2022-11-06T03:40:44;9.43;;;4.03;;
18651;SDS011;9455;54.302;10.124;2022-11-06T03:43:16;6.87;;;3.77;;
18651;SDS011;9455;54.302;10.124;2022-11-06T03:45:47;9.73;;;4.07;;
18651;SDS011;9455;54.302;10.124;2022-11-06T03:48:18;7.87;;;3.53;;
18651;SDS011;9455;54.302;10.124;2022-11-06T03:50:50;4.07;;;3.60;;
18651;SDS011;9455;54.302;10.124;2022-11-06T03:53:22;5.50;;;3.90;;
18651;SDS011;9455;54.302;10.124;2022-11-06T03:55:54;12.60;;;4.53;;
18651;SDS011;9455;54.302;10.124;2022-11-06T03:58:28;10.70;;;4.10;;
18651;SDS011;9455;54.302;10.124;2022-11-06T04:00:58;5.83;;;4.20;;
18651;SDS011;9455;54.302;10.124;2022-11-06T04:03:29;10.47;;;4.10;;
18651;SDS011;9455;54.302;10.124;2022-11-06T04:06:02;10.50;;;4.40;;
18651;SDS011;9455;54.302;10.124;2022-11-06T04:08:34;7.97;;;4.27;;
18651;SDS011;9455;54.302;10.124;2022-11-06T04:11:19;7.57;;;4.20;;
18651;SDS011;9455;54.302;10.124;2022-11-06T04:14:21;8.37;;;4.17;;
18651;SDS011;9455;54.302;10.124;2022-11-06T04:16:52;9.63;;;4.50;;
18651;SDS011;9455;54.302;10.124;2022-11-06T04:19:22;9.47;;;4.77;;
18651;SDS011;9455;54.302;10.124;2022-11-06T04:21:55;9.63;;;4.33;;
18651;SDS011;9455;54.302;10.124;2022-11-06T04:24:35;12.57;;;5.03;;
18651;SDS011;9455;54.302;10.124;2022-11-06T04:27:37;6.40;;;4.47;;
18651;SDS011;9455;54.302;10.124;2022-11-06T04:30:15;10.57;;;4.37;;
18651;SDS011;9455;54.302;10.124;2022-11-06T04:32:49;12.37;;;5.20;;
18651;SDS011;9455;54.302;10.124;2022-11-06T04:35:27;6.47;;;4.80;;
18651;SDS011;9455;54.302;10.124;2022-11-06T04:37:59;11.93;;;4.83;;
18651;SDS011;9455;54.302;10.124;2022-11-06T04:40:30;6.17;;;5.17;;
18651;SDS011;9455;54.302;10.124;2022-11-06T04:43:02;10.27;;;5.00;;
18651;SDS011;9455;54.302;10.124;2022-11-06T04:45:33;8.57;;;3.97;;
18651;SDS011;9455;54.302;10.124;2022-11-06T04:48:05;10.33;;;4.70;;
18651;SDS011;9455;54.302;10.124;2022-11-06T04:50:34;11.00;;;5.40;;
18651;SDS011;9455;54.302;10.124;2022-11-06T04:53:03;8.43;;;4.73;;
18651;SDS011;9455;54.302;10.124;2022-11-06T04:55:36;10.10;;;4.93;;
18651;SDS011;9455;54.302;10.124;2022-11-06T04:58:09;20.53;;;5.20;;
18651;SDS011;9455;54.302;10.124;2022-11-06T05:00:37;11.33;;;5.23;;
18651;SDS011;9455;54.302;10.124;2022-11-06T05:03:07;11.43;;;5.00;;
18651;SDS011;9455;54.302;10.124;2022-11-06T05:05:33;13.40;;;4.73;;
18651;SDS011;9455;54.302;10.124;2022-11-06T05:08:00;12.10;;;5.67;;
18651;SDS011;9455;54.302;10.124;2022-11-06T05:10:26;12.63;;;5.50;;
18651;SDS011;9455;54.302;10.124;2022-11-06T05:12:53;6.20;;;4.60;;
18651;SDS011;9455;54.302;10.124;2022-11-06T05:15:19;10.43;;;5.03;;
18651;SDS011;9455;54.302;10.124;2022-11-06T05:17:47;10.20;;;5.50;;
18651;SDS011;9455;54.302;10.124;2022-11-06T05:20:14;14.20;;;5.73;;
18651;SDS011;9455;54.302;10.124;2022-11-06T05:22:40;13.43;;;5.60;;
18651;SDS011;9455;54.302;10.124;2022-11-06T05:25:22;14.90;;;5.57;;
18651;SDS011;9455;54.302;10.124;2022-11-06T05:27:48;8.70;;;5.47;;
18651;SDS011;9455;54.302;10.124;2022-11-06T05:30:15;12.87;;;5.60;;
18651;SDS011;9455;54.302;10.124;2022-11-06T05:32:41;12.13;;;5.40;;
18651;SDS011;9455;54.302;10.124;2022-11-06T05:35:09;8.90;;;5.00;;
18651;SDS011;9455;54.302;10.124;2022-11-06T05:37:36;13.97;;;6.40;;
18651;SDS011;9455;54.302;10.124;2022-11-06T05:40:03;14.20;;;5.23;;
18651;SDS011;9455;54.302;10.124;2022-11-06T05:42:29;7.83;;;4.83;;
18651;SDS011;9455;54.302;10.124;2022-11-06T05:44:56;9.73;;;5.40;;
18651;SDS011;9455;54.302;10.124;2022-11-06T05:47:23;10.20;;;5.57;;
18651;SDS011;9455;54.302;10.124;2022-11-06T05:49:49;13.27;;;5.73;;
18651;SDS011;9455;54.302;10.124;2022-11-06T05:52:17;8.47;;;5.23;;
18651;SDS011;9455;54.302;10.124;2022-11-06T05:54:43;8.23;;;5.53;;
18651;SDS011;9455;54.302;10.124;2022-11-06T05:57:10;7.37;;;5.37;;
18651;SDS011;9455;54.302;10.124;2022-11-06T05:59:37;11.07;;;5.33;;
18651;SDS011;9455;54.302;10.124;2022-11-06T06:02:03;9.43;;;5.30;;
18651;SDS011;9455;54.302;10.124;2022-11-06T06:04:30;7.93;;;5.40;;
18651;SDS011;9455;54.302;10.124;2022-11-06T06:06:56;8.20;;;4.93;;
18651;SDS011;9455;54.302;10.124;2022-11-06T06:09:24;12.07;;;5.93;;
18651;SDS011;9455;54.302;10.124;2022-11-06T06:11:51;11.50;;;5.87;;
18651;SDS011;9455;54.302;10.124;2022-11-06T06:14:18;11.73;;;5.83;;
18651;SDS011;9455;54.302;10.124;2022-11-06T06:16:45;10.87;;;5.63;;
18651;SDS011;9455;54.302;10.124;2022-11-06T06:19:12;10.70;;;5.90;;
18651;SDS011;9455;54.302;10.124;2022-11-06T06:21:38;9.27;;;5.90;;
18651;SDS011;9455;54.302;10.124;2022-11-06T06:24:05;6.23;;;5.20;;
18651;SDS011;9455;54.302;10.124;2022-11-06T06:26:33;8.80;;;5.43;;
18651;SDS011;9455;54.302;10.124;2022-11-06T06:29:00;7.60;;;5.70;;
18651;SDS011;9455;54.302;10.124;2022-11-06T06:31:27;10.77;;;6.27;;
18651;SDS011;9455;54.302;10.124;2022-11-06T06:33:53;7.43;;;5.83;;
18651;SDS011;9455;54.302;10.124;2022-11-06T06:36:20;8.10;;;6.00;;
18651;SDS011;9455;54.302;10.124;2022-11-06T06:38:46;6.50;;;5.47;;
18651;SDS011;9455;54.302;10.124;2022-11-06T06:41:13;7.70;;;5.37;;
18651;SDS011;9455;54.302;10.124;2022-11-06T06:43:41;9.73;;;6.67;;
18651;SDS011;9455;54.302;10.124;2022-11-06T06:46:07;9.17;;;5.97;;
18651;SDS011;9455;54.302;10.124;2022-11-06T06:48:34;10.37;;;5.90;;
18651;SDS011;9455;54.302;10.124;2022-11-06T06:51:02;9.10;;;6.00;;
18651;SDS011;9455;54.302;10.124;2022-11-06T06:53:29;7.37;;;5.30;;
18651;SDS011;9455;54.302;10.124;2022-11-06T06:55:56;9.47;;;5.80;;
18651;SDS011;9455;54.302;10.124;2022-11-06T06:58:23;7.63;;;5.83;;
18651;SDS011;9455;54.302;10.124;2022-11-06T07:00:51;7.77;;;6.00;;
18651;SDS011;9455;54.302;10.124;2022-11-06T07:03:17;13.07;;;5.93;;
18651;SDS011;9455;54.302;10.124;2022-11-06T07:05:44;7.70;;;5.60;;
18651;SDS011;9455;54.302;10.124;2022-11-06T07:08:11;11.63;;;5.37;;
18651;SDS011;9455;54.302;10.124;2022-11-06T07:10:38;11.70;;;6.00;;
18651;SDS011;9455;54.302;10.124;2022-11-06T07:13:04;9.57;;;5.30;;
18651;SDS011;9455;54.302;10.124;2022-11-06T07:15:31;9.00;;;5.00;;
18651;SDS011;9455;54.302;10.124;2022-11-06T07:18:01;6.80;;;5.40;;
18651;SDS011;9455;54.302;10.124;2022-11-06T07:20:28;8.93;;;5.50;;
18651;SDS011;9455;54.302;10.124;2022-11-06T07:22:55;10.30;;;5.53;;
18651;SDS011;9455;54.302;10.124;2022-11-06T07:25:22;7.00;;;5.13;;
18651;SDS011;9455;54.302;10.124;2022-11-06T07:27:48;7.20;;;5.10;;
18651;SDS011;9455;54.302;10.124;2022-11-06T07:30:15;12.20;;;5.20;;
18651;SDS011;9455;54.302;10.124;2022-11-06T07:32:42;8.70;;;5.50;;
18651;SDS011;9455;54.302;10.124;2022-11-06T07:35:10;5.63;;;5.00;;
18651;SDS011;9455;54.302;10.124;2022-11-06T07:37:36;8.07;;;5.43;;
18651;SDS011;9455;54.302;10.124;2022-11-06T07:40:03;7.83;;;5.00;;
18651;SDS011;9455;54.302;10.124;2022-11-06T07:42:30;6.50;;;4.73;;
18651;SDS011;9455;54.302;10.124;2022-11-06T07:44:57;6.27;;;4.83;;
18651;SDS011;9455;54.302;10.124;2022-11-06T07:47:24;8.27;;;5.63;;
18651;SDS011;9455;54.302;10.124;2022-11-06T07:49:51;9.30;;;5.13;;
18651;SDS011;9455;54.302;10.124;2022-11-06T07:52:19;5.37;;;4.70;;
18651;SDS011;9455;54.302;10.124;2022-11-06T07:54:46;8.87;;;4.90;;
18651;SDS011;9455;54.302;10.124;2022-11-06T07:57:12;7.77;;;4.93;;
18651;SDS011;9455;54.302;10.124;2022-11-06T07:59:39;9.03;;;4.70;;
18651;SDS011;9455;54.302;10.124;2022-11-06T08:02:08;10.93;;;4.63;;
18651;SDS011;9455;54.302;10.124;2022-11-06T08:04:35;9.07;;;5.00;;
18651;SDS011;9455;54.302;10.124;2022-11-06T08:07:02;10.73;;;5.03;;
18651;SDS011;9455;54.302;10.124;2022-11-06T08:09:30;6.07;;;4.60;;
18651;SDS011;9455;54.302;10.124;2022-11-06T08:11:56;6.83;;;4.63;;
18651;SDS011;9455;54.302;10.124;2022-11-06T08:14:23;6.97;;;4.80;;
18651;SDS011;9455;54.302;10.124;2022-11-06T08:16:49;6.93;;;4.97;;
18651;SDS011;9455;54.302;10.124;2022-11-06T08:19:16;5.73;;;4.53;;
18651;SDS011;9455;54.302;10.124;2022-11-06T08:21:43;8.60;;;4.27;;
18651;SDS011;9455;54.302;10.124;2022-11-06T08:24:09;5.13;;;4.17;;
18651;SDS011;9455;54.302;10.124;2022-11-06T08:26:37;4.60;;;4.20;;
18651;SDS011;9455;54.302;10.124;2022-11-06T08:29:04;9.47;;;4.40;;
18651;SDS011;9455;54.302;10.124;2022-11-06T08:31:31;7.13;;;4.50;;
18651;SDS011;9455;54.302;10.124;2022-11-06T08:33:57;6.77;;;4.70;;
18651;SDS011;9455;54.302;10.124;2022-11-06T08:36:24;7.30;;;4.50;;
18651;SDS011;9455;54.302;10.124;2022-11-06T08:38:50;7.07;;;5.27;;
18651;SDS011;9455;54.302;10.124;2022-11-06T08:41:17;8.13;;;5.00;;
18651;SDS011;9455;54.302;10.124;2022-11-06T08:43:49;7.77;;;4.83;;
18651;SDS011;9455;54.302;10.124;2022-11-06T08:46:16;9.73;;;5.47;;
18651;SDS011;9455;54.302;10.124;2022-11-06T08:51:11;7.97;;;5.07;;
18651;SDS011;9455;54.302;10.124;2022-11-06T08:53:37;13.53;;;6.93;;
18651;SDS011;9455;54.302;10.124;2022-11-06T08:56:04;13.93;;;6.30;;
18651;SDS011;9455;54.302;10.124;2022-11-06T08:58:31;15.10;;;7.30;;
18651;SDS011;9455;54.302;10.124;2022-11-06T09:00:59;14.03;;;5.87;;
18651;SDS011;9455;54.302;10.124;2022-11-06T09:03:26;9.43;;;5.67;;
18651;SDS011;9455;54.302;10.124;2022-11-06T09:05:52;9.87;;;5.43;;
18651;SDS011;9455;54.302;10.124;2022-11-06T09:08:19;10.30;;;6.03;;
18651;SDS011;9455;54.302;10.124;2022-11-06T09:10:45;10.80;;;5.70;;
18651;SDS011;9455;54.302;10.124;2022-11-06T09:13:12;7.90;;;4.80;;
18651;SDS011;9455;54.302;10.124;2022-11-06T09:15:39;7.67;;;5.23;;
18651;SDS011;9455;54.302;10.124;2022-11-06T09:18:07;11.63;;;4.80;;
18651;SDS011;9455;54.302;10.124;2022-11-06T09:20:34;10.90;;;5.20;;
18651;SDS011;9455;54.302;10.124;2022-11-06T09:23:00;11.23;;;5.17;;
18651;SDS011;9455;54.302;10.124;2022-11-06T09:25:29;11.70;;;5.10;;
18651;SDS011;9455;54.302;10.124;2022-11-06T09:27:56;18.73;;;6.43;;
18651;SDS011;9455;54.302;10.124;2022-11-06T09:30:22;17.17;;;5.90;;
18651;SDS011;9455;54.302;10.124;2022-11-06T09:32:51;10.27;;;5.57;;
18651;SDS011;9455;54.302;10.124;2022-11-06T09:35:21;9.00;;;5.80;;
18651;SDS011;9455;54.302;10.124;2022-11-06T09:37:49;9.13;;;5.33;;
18651;SDS011;9455;54.302;10.124;2022-11-06T09:40:18;11.67;;;5.80;;
18651;SDS011;9455;54.302;10.124;2022-11-06T09:42:50;12.10;;;5.27;;
18651;SDS011;9455;54.302;10.124;2022-11-06T09:45:25;9.60;;;5.03;;
18651;SDS011;9455;54.302;10.124;2022-11-06T09:47:56;9.60;;;4.50;;
18651;SDS011;9455;54.302;10.124;2022-11-06T09:50:29;16.20;;;5.77;;
18651;SDS011;9455;54.302;10.124;2022-11-06T09:53:00;6.93;;;4.50;;
18651;SDS011;9455;54.302;10.124;2022-11-06T09:55:32;6.97;;;4.77;;
18651;SDS011;9455;54.302;10.124;2022-11-06T09:58:02;13.97;;;5.03;;
18651;SDS011;9455;54.302;10.124;2022-11-06T10:00:34;15.97;;;4.97;;
18651;SDS011;9455;54.302;10.124;2022-11-06T10:03:02;8.20;;;4.30;;
18651;SDS011;9455;54.302;10.124;2022-11-06T10:05:33;8.23;;;4.30;;
18651;SDS011;9455;54.302;10.124;2022-11-06T10:08:02;13.87;;;5.10;;
18651;SDS011;9455;54.302;10.124;2022-11-06T10:10:34;14.03;;;5.30;;
18651;SDS011;9455;54.302;10.124;2022-11-06T10:13:14;9.47;;;4.77;;
18651;SDS011;9455;54.302;10.124;2022-11-06T10:15:57;8.07;;;4.50;;
18651;SDS011;9455;54.302;10.124;2022-11-06T10:18:29;10.47;;;4.47;;
18651;SDS011;9455;54.302;10.124;2022-11-06T10:21:07;12.03;;;4.67;;
18651;SDS011;9455;54.302;10.124;2022-11-06T10:23:38;10.43;;;4.07;;
18651;SDS011;9455;54.302;10.124;2022-11-06T10:26:13;7.13;;;4.13;;
18651;SDS011;9455;54.302;10.124;2022-11-06T10:28:54;6.83;;;4.30;;
18651;SDS011;9455;54.302;10.124;2022-11-06T10:31:32;8.20;;;4.17;;
18651;SDS011;9455;54.302;10.124;2022-11-06T10:34:05;17.40;;;4.23;;
18651;SDS011;9455;54.302;10.124;2022-11-06T10:36:38;6.93;;;3.87;;
18651;SDS011;9455;54.302;10.124;2022-11-06T10:39:11;8.30;;;3.80;;
18651;SDS011;9455;54.302;10.124;2022-11-06T10:41:40;8.07;;;4.13;;
18651;SDS011;9455;54.302;10.124;2022-11-06T10:44:12;11.00;;;4.17;;
18651;SDS011;9455;54.302;10.124;2022-11-06T10:46:45;9.87;;;4.00;;
18651;SDS011;9455;54.302;10.124;2022-11-06T10:49:15;5.57;;;3.80;;
18651;SDS011;9455;54.302;10.124;2022-11-06T10:54:50;7.27;;;3.87;;
18651;SDS011;9455;54.302;10.124;2022-11-06T10:57:26;7.70;;;3.77;;
18651;SDS011;9455;54.302;10.124;2022-11-06T10:59:57;8.70;;;3.13;;
18651;SDS011;9455;54.302;10.124;2022-11-06T11:02:25;6.63;;;3.80;;
18651;SDS011;9455;54.302;10.124;2022-11-06T11:04:55;7.90;;;3.83;;
18651;SDS011;9455;54.302;10.124;2022-11-06T11:07:23;4.20;;;3.10;;
18651;SDS011;9455;54.302;10.124;2022-11-06T11:09:51;7.90;;;3.30;;
18651;SDS011;9455;54.302;10.124;2022-11-06T11:12:19;8.67;;;3.83;;
18651;SDS011;9455;54.302;10.124;2022-11-06T11:15:05;8.30;;;3.80;;
18651;SDS011;9455;54.302;10.124;2022-11-06T11:17:38;7.87;;;3.17;;
18651;SDS011;9455;54.302;10.124;2022-11-06T11:20:17;13.90;;;4.33;;
18651;SDS011;9455;54.302;10.124;2022-11-06T11:23:06;10.50;;;3.33;;
18651;SDS011;9455;54.302;10.124;2022-11-06T11:25:42;3.30;;;2.87;;
18651;SDS011;9455;54.302;10.124;2022-11-06T11:28:13;8.77;;;3.90;;
18651;SDS011;9455;54.302;10.124;2022-11-06T11:30:49;4.00;;;2.90;;
18651;SDS011;9455;54.302;10.124;2022-11-06T11:33:18;9.23;;;2.67;;
18651;SDS011;9455;54.302;10.124;2022-11-06T11:35:47;10.10;;;2.90;;
18651;SDS011;9455;54.302;10.124;2022-11-06T11:38:16;4.67;;;2.80;;
18651;SDS011;9455;54.302;10.124;2022-11-06T11:40:45;9.43;;;3.60;;
18651;SDS011;9455;54.302;10.124;2022-11-06T11:43:20;11.50;;;2.83;;
18651;SDS011;9455;54.302;10.124;2022-11-06T11:46:02;9.60;;;2.40;;
18651;SDS011;9455;54.302;10.124;2022-11-06T11:48:43;2.70;;;2.50;;
18651;SDS011;9455;54.302;10.124;2022-11-06T11:51:11;3.50;;;2.60;;
18651;SDS011;9455;54.302;10.124;2022-11-06T11:53:47;8.30;;;2.60;;
18651;SDS011;9455;54.302;10.124;2022-11-06T11:56:14;6.23;;;2.73;;
18651;SDS011;9455;54.302;10.124;2022-11-06T11:58:47;5.60;;;2.90;;
18651;SDS011;9455;54.302;10.124;2022-11-06T12:01:15;5.60;;;2.47;;
18651;SDS011;9455;54.302;10.124;2022-11-06T12:03:43;4.50;;;2.73;;
18651;SDS011;9455;54.302;10.124;2022-11-06T12:06:15;2.70;;;2.50;;
18651;SDS011;9455;54.302;10.124;2022-11-06T12:08:44;4.97;;;2.43;;
18651;SDS011;9455;54.302;10.124;2022-11-06T12:11:18;5.67;;;2.40;;
18651;SDS011;9455;54.302;10.124;2022-11-06T12:16:43;8.17;;;2.40;;
18651;SDS011;9455;54.302;10.124;2022-11-06T12:19:13;3.17;;;2.10;;
18651;SDS011;9455;54.302;10.124;2022-11-06T12:21:41;6.13;;;2.33;;
18651;SDS011;9455;54.302;10.124;2022-11-06T12:24:11;5.10;;;2.50;;
18651;SDS011;9455;54.302;10.124;2022-11-06T12:26:45;3.83;;;2.27;;
18651;SDS011;9455;54.302;10.124;2022-11-06T12:29:17;4.60;;;2.03;;
18651;SDS011;9455;54.302;10.124;2022-11-06T12:31:49;6.50;;;2.20;;
18651;SDS011;9455;54.302;10.124;2022-11-06T12:34:22;1.70;;;1.60;;
18651;SDS011;9455;54.302;10.124;2022-11-06T12:37:02;8.80;;;3.03;;
18651;SDS011;9455;54.302;10.124;2022-11-06T12:39:41;2.40;;;1.93;;
18651;SDS011;9455;54.302;10.124;2022-11-06T12:42:12;7.27;;;1.93;;
18651;SDS011;9455;54.302;10.124;2022-11-06T12:44:41;2.60;;;1.60;;
18651;SDS011;9455;54.302;10.124;2022-11-06T12:47:10;2.20;;;2.00;;
18651;SDS011;9455;54.302;10.124;2022-11-06T12:49:53;6.90;;;1.77;;
18651;SDS011;9455;54.302;10.124;2022-11-06T12:52:34;6.37;;;1.47;;
18651;SDS011;9455;54.302;10.124;2022-11-06T12:55:16;5.20;;;1.80;;
18651;SDS011;9455;54.302;10.124;2022-11-06T12:57:51;6.87;;;1.80;;
18651;SDS011;9455;54.302;10.124;2022-11-06T13:00:28;4.20;;;1.80;;
18651;SDS011;9455;54.302;10.124;2022-11-06T13:06:02;12.23;;;1.93;;
18651;SDS011;9455;54.302;10.124;2022-11-06T13:08:34;8.80;;;2.17;;
18651;SDS011;9455;54.302;10.124;2022-11-06T13:11:15;1.80;;;1.70;;
18651;SDS011;9455;54.302;10.124;2022-11-06T13:16:40;1.33;;;1.30;;
18651;SDS011;9455;54.302;10.124;2022-11-06T13:19:14;1.00;;;0.93;;
18651;SDS011;9455;54.302;10.124;2022-11-06T13:21:54;11.53;;;1.70;;
18651;SDS011;9455;54.302;10.124;2022-11-06T13:24:35;3.30;;;1.50;;
18651;SDS011;9455;54.302;10.124;2022-11-06T13:27:12;4.30;;;1.23;;
18651;SDS011;9455;54.302;10.124;2022-11-06T13:29:49;2.50;;;1.70;;
18651;SDS011;9455;54.302;10.124;2022-11-06T13:32:17;3.23;;;1.57;;
18651;SDS011;9455;54.302;10.124;2022-11-06T13:34:49;3.50;;;1.87;;
18651;SDS011;9455;54.302;10.124;2022-11-06T13:37:18;1.40;;;1.30;;
18651;SDS011;9455;54.302;10.124;2022-11-06T13:39:49;1.70;;;1.60;;
18651;SDS011;9455;54.302;10.124;2022-11-06T13:42:29;2.67;;;1.73;;
18651;SDS011;9455;54.302;10.124;2022-11-06T13:45:01;2.30;;;1.50;;
18651;SDS011;9455;54.302;10.124;2022-11-06T13:47:31;5.77;;;1.60;;
18651;SDS011;9455;54.302;10.124;2022-11-06T13:50:07;14.53;;;5.40;;
18651;SDS011;9455;54.302;10.124;2022-11-06T13:52:40;13.20;;;4.67;;
18651;SDS011;9455;54.302;10.124;2022-11-06T13:55:15;18.70;;;6.50;;
18651;SDS011;9455;54.302;10.124;2022-11-06T14:01:01;9.27;;;2.43;;
18651;SDS011;9455;54.302;10.124;2022-11-06T14:03:41;8.40;;;1.50;;
18651;SDS011;9455;54.302;10.124;2022-11-06T14:06:25;7.20;;;1.53;;
18651;SDS011;9455;54.302;10.124;2022-11-06T14:08:55;2.03;;;1.33;;
18651;SDS011;9455;54.302;10.124;2022-11-06T14:11:25;7.17;;;1.40;;
18651;SDS011;9455;54.302;10.124;2022-11-06T14:13:57;5.43;;;2.57;;
18651;SDS011;9455;54.302;10.124;2022-11-06T14:16:27;6.13;;;1.47;;
18651;SDS011;9455;54.302;10.124;2022-11-06T14:18:56;1.50;;;1.40;;
18651;SDS011;9455;54.302;10.124;2022-11-06T14:21:44;1.70;;;1.33;;
18651;SDS011;9455;54.302;10.124;2022-11-06T14:26:58;4.00;;;1.30;;
18651;SDS011;9455;54.302;10.124;2022-11-06T14:29:50;2.60;;;1.50;;
18651;SDS011;9455;54.302;10.124;2022-11-06T14:32:37;1.27;;;1.13;;
18651;SDS011;9455;54.302;10.124;2022-11-06T14:38:34;1.50;;;1.20;;
18651;SDS011;9455;54.302;10.124;2022-11-06T14:41:21;2.83;;;1.00;;
18651;SDS011;9455;54.302;10.124;2022-11-06T14:44:14;6.33;;;1.77;;
18651;SDS011;9455;54.302;10.124;2022-11-06T14:46:50;0.80;;;0.80;;
18651;SDS011;9455;54.302;10.124;2022-11-06T14:49:27;9.40;;;1.30;;
18651;SDS011;9455;54.302;10.124;2022-11-06T14:52:00;1.90;;;1.10;;
18651;SDS011;9455;54.302;10.124;2022-11-06T14:54:29;4.33;;;1.20;;
18651;SDS011;9455;54.302;10.124;2022-11-06T14:56:59;2.17;;;1.00;;
18651;SDS011;9455;54.302;10.124;2022-11-06T14:59:30;3.87;;;1.30;;
18651;SDS011;9455;54.302;10.124;2022-11-06T15:02:01;4.40;;;1.60;;
18651;SDS011;9455;54.302;10.124;2022-11-06T15:04:35;5.00;;;1.83;;
18651;SDS011;9455;54.302;10.124;2022-11-06T15:07:13;5.03;;;1.63;;
18651;SDS011;9455;54.302;10.124;2022-11-06T15:09:52;1.63;;;1.30;;
18651;SDS011;9455;54.302;10.124;2022-11-06T15:12:20;1.90;;;1.80;;
18651;SDS011;9455;54.302;10.124;2022-11-06T15:15:32;3.77;;;1.83;;
18651;SDS011;9455;54.302;10.124;2022-11-06T15:18:19;2.17;;;1.50;;
18651;SDS011;9455;54.302;10.124;2022-11-06T15:20:48;5.10;;;1.60;;
18651;SDS011;9455;54.302;10.124;2022-11-06T15:23:21;1.97;;;1.77;;
18651;SDS011;9455;54.302;10.124;2022-11-06T15:25:53;3.07;;;2.00;;
18651;SDS011;9455;54.302;10.124;2022-11-06T15:28:27;10.70;;;2.87;;
18651;SDS011;9455;54.302;10.124;2022-11-06T15:30:59;5.50;;;2.20;;